sensor_id;sensor_type;location;lat;lon;timestamp;pressure;altitude;pressure_sealevel;temperature;humidity
24302;BME280;12421;49.732;20.078;2023-01-28T00:02:29;97115.30;;;-2.06;77.39
24302;BME280;12421;49.732;20.078;2023-01-28T00:12:37;97113.21;;;-2.02;77.65
24302;BME280;12421;49.732;20.078;2023-01-28T00:22:50;97110.23;;;-2.03;77.80
24302;BME280;12421;49.732;20.078;2023-01-28T00:33:06;97108.95;;;-2.01;77.82
24302;BME280;12421;49.732;20.078;2023-01-28T00:43:24;97109.22;;;-1.99;77.81
24302;BME280;12421;49.732;20.078;2023-01-28T00:54:02;97116.98;;;-1.94;78.19
24302;BME280;12421;49.732;20.078;2023-01-28T01:04:06;97118.49;;;-1.91;77.97
24302;BME280;12421;49.732;20.078;2023-01-28T01:14:31;97125.29;;;-1.93;78.12
24302;BME280;12421;49.732;20.078;2023-01-28T01:35:57;97120.43;;;-1.98;78.41
24302;BME280;12421;49.732;20.078;2023-01-28T01:46:14;97118.84;;;-1.95;78.62
24302;BME280;12421;49.732;20.078;2023-01-28T02:18:12;97135.13;;;-2.01;79.12
24302;BME280;12421;49.732;20.078;2023-01-28T02:39:41;97127.35;;;-1.97;79.05
24302;BME280;12421;49.732;20.078;2023-01-28T02:49:54;97136.62;;;-1.93;79.44
24302;BME280;12421;49.732;20.078;2023-01-28T03:00:09;97137.36;;;-2.01;79.61
24302;BME280;12421;49.732;20.078;2023-01-28T03:10:19;97133.17;;;-2.02;79.70
24302;BME280;12421;49.732;20.078;2023-01-28T03:20:27;97134.42;;;-2.05;79.61
24302;BME280;12421;49.732;20.078;2023-01-28T03:41:27;97129.98;;;-2.09;79.80
24302;BME280;12421;49.732;20.078;2023-01-28T03:51:33;97126.98;;;-2.06;79.64
24302;BME280;12421;49.732;20.078;2023-01-28T04:01:37;97127.63;;;-2.07;79.19
24302;BME280;12421;49.732;20.078;2023-01-28T04:11:44;97134.50;;;-2.08;79.04
24302;BME280;12421;49.732;20.078;2023-01-28T04:21:54;97141.94;;;-2.06;78.78
24302;BME280;12421;49.732;20.078;2023-01-28T04:32:02;97141.91;;;-2.07;78.33
24302;BME280;12421;49.732;20.078;2023-01-28T04:42:38;97152.09;;;-2.14;78.27
24302;BME280;12421;49.732;20.078;2023-01-28T04:53:12;97160.21;;;-2.18;78.29
24302;BME280;12421;49.732;20.078;2023-01-28T05:03:29;97171.08;;;-2.17;78.23
24302;BME280;12421;49.732;20.078;2023-01-28T05:13:58;97178.83;;;-2.16;78.02
24302;BME280;12421;49.732;20.078;2023-01-28T05:24:21;97174.40;;;-2.16;78.55
24302;BME280;12421;49.732;20.078;2023-01-28T05:34:54;97176.05;;;-2.17;78.28
24302;BME280;12421;49.732;20.078;2023-01-28T05:44:58;97186.55;;;-2.21;78.32
24302;BME280;12421;49.732;20.078;2023-01-28T05:55:38;97192.29;;;-2.23;78.24
24302;BME280;12421;49.732;20.078;2023-01-28T06:05:45;97198.73;;;-2.25;78.29
24302;BME280;12421;49.732;20.078;2023-01-28T06:15:56;97210.47;;;-2.28;78.09
24302;BME280;12421;49.732;20.078;2023-01-28T06:26:14;97218.80;;;-2.27;78.40
24302;BME280;12421;49.732;20.078;2023-01-28T06:36:21;97230.77;;;-2.28;78.34
24302;BME280;12421;49.732;20.078;2023-01-28T06:46:25;97246.42;;;-2.28;78.42
24302;BME280;12421;49.732;20.078;2023-01-28T06:56:30;97261.27;;;-2.27;78.16
24302;BME280;12421;49.732;20.078;2023-01-28T07:06:34;97265.23;;;-2.23;78.21
24302;BME280;12421;49.732;20.078;2023-01-28T07:16:38;97273.75;;;-2.16;77.87
24302;BME280;12421;49.732;20.078;2023-01-28T07:36:56;97293.16;;;-1.97;77.31
24302;BME280;12421;49.732;20.078;2023-01-28T08:08:50;97313.36;;;-1.88;76.89
24302;BME280;12421;49.732;20.078;2023-01-28T08:19:07;97318.07;;;-1.86;76.52
24302;BME280;12421;49.732;20.078;2023-01-28T08:29:35;97316.39;;;-1.81;76.30
24302;BME280;12421;49.732;20.078;2023-01-28T08:39:38;97324.56;;;-1.71;75.60
24302;BME280;12421;49.732;20.078;2023-01-28T08:50:05;97325.11;;;-1.62;75.42
24302;BME280;12421;49.732;20.078;2023-01-28T09:00:20;97328.46;;;-1.52;75.62
24302;BME280;12421;49.732;20.078;2023-01-28T09:10:41;97337.31;;;-1.34;75.13
24302;BME280;12421;49.732;20.078;2023-01-28T09:20:45;97343.79;;;-1.24;74.26
24302;BME280;12421;49.732;20.078;2023-01-28T09:30:50;97351.68;;;-1.16;73.93
24302;BME280;12421;49.732;20.078;2023-01-28T09:40:55;97349.81;;;-0.94;73.48
24302;BME280;12421;49.732;20.078;2023-01-28T09:51:47;97346.77;;;-0.84;72.65
24302;BME280;12421;49.732;20.078;2023-01-28T10:02:31;97333.56;;;-0.65;72.54
24302;BME280;12421;49.732;20.078;2023-01-28T10:13:16;97333.59;;;-0.68;72.58
24302;BME280;12421;49.732;20.078;2023-01-28T10:23:51;97338.06;;;-0.42;72.36
24302;BME280;12421;49.732;20.078;2023-01-28T10:33:59;97341.95;;;-0.26;72.34
24302;BME280;12421;49.732;20.078;2023-01-28T10:44:17;97339.26;;;-0.24;72.05
24302;BME280;12421;49.732;20.078;2023-01-28T10:54:30;97337.30;;;0.03;71.97
24302;BME280;12421;49.732;20.078;2023-01-28T11:04:35;97333.73;;;0.09;71.02
24302;BME280;12421;49.732;20.078;2023-01-28T11:14:53;97332.23;;;0.29;70.28
24302;BME280;12421;49.732;20.078;2023-01-28T11:24:59;97319.02;;;0.32;70.22
24302;BME280;12421;49.732;20.078;2023-01-28T11:35:04;97316.92;;;0.51;70.25
24302;BME280;12421;49.732;20.078;2023-01-28T11:45:15;97319.13;;;0.40;69.62
24302;BME280;12421;49.732;20.078;2023-01-28T12:05:47;97310.23;;;0.33;70.29
24302;BME280;12421;49.732;20.078;2023-01-28T12:16:04;97317.73;;;0.25;69.94
24302;BME280;12421;49.732;20.078;2023-01-28T12:57:22;97331.50;;;-0.01;69.82
24302;BME280;12421;49.732;20.078;2023-01-28T13:07:40;97330.42;;;-0.11;70.68
24302;BME280;12421;49.732;20.078;2023-01-28T13:18:04;97331.59;;;-0.17;70.70
24302;BME280;12421;49.732;20.078;2023-01-28T13:28:25;97338.91;;;-0.20;70.82
24302;BME280;12421;49.732;20.078;2023-01-28T13:39:00;97345.23;;;-0.22;70.97
24302;BME280;12421;49.732;20.078;2023-01-28T13:49:15;97355.85;;;-0.28;71.00
24302;BME280;12421;49.732;20.078;2023-01-28T13:59:45;97356.73;;;-0.28;71.26
24302;BME280;12421;49.732;20.078;2023-01-28T14:20:27;97380.57;;;0.01;71.35
24302;BME280;12421;49.732;20.078;2023-01-28T14:30:55;97384.10;;;-0.11;71.18
24302;BME280;12421;49.732;20.078;2023-01-28T14:41:03;97390.86;;;-0.33;71.44
24302;BME280;12421;49.732;20.078;2023-01-28T15:01:33;97399.96;;;-0.42;72.14
24302;BME280;12421;49.732;20.078;2023-01-28T15:11:40;97409.50;;;-0.37;72.19
24302;BME280;12421;49.732;20.078;2023-01-28T15:21:57;97413.67;;;-0.45;72.48
24302;BME280;12421;49.732;20.078;2023-01-28T15:32:04;97424.21;;;-0.52;72.16
24302;BME280;12421;49.732;20.078;2023-01-28T15:42:17;97424.41;;;-0.52;72.64
24302;BME280;12421;49.732;20.078;2023-01-28T15:52:34;97427.80;;;-0.45;72.77
24302;BME280;12421;49.732;20.078;2023-01-28T16:03:09;97434.02;;;-0.40;72.79
24302;BME280;12421;49.732;20.078;2023-01-28T16:13:24;97450.91;;;-0.36;72.62
24302;BME280;12421;49.732;20.078;2023-01-28T16:23:31;97445.72;;;-0.49;72.00
24302;BME280;12421;49.732;20.078;2023-01-28T16:33:39;97446.52;;;-0.55;71.94
24302;BME280;12421;49.732;20.078;2023-01-28T16:43:46;97450.95;;;-0.39;72.02
24302;BME280;12421;49.732;20.078;2023-01-28T16:54:16;97457.43;;;-0.28;71.86
24302;BME280;12421;49.732;20.078;2023-01-28T17:04:21;97469.90;;;-0.23;72.43
24302;BME280;12421;49.732;20.078;2023-01-28T17:14:25;97473.90;;;-0.35;72.43
24302;BME280;12421;49.732;20.078;2023-01-28T17:24:29;97471.79;;;-0.40;73.48
24302;BME280;12421;49.732;20.078;2023-01-28T17:34:35;97478.21;;;-0.31;73.40
24302;BME280;12421;49.732;20.078;2023-01-28T17:44:39;97486.40;;;-0.29;73.45
24302;BME280;12421;49.732;20.078;2023-01-28T17:54:48;97479.81;;;-0.34;73.65
24302;BME280;12421;49.732;20.078;2023-01-28T18:04:57;97482.92;;;-0.46;74.07
24302;BME280;12421;49.732;20.078;2023-01-28T18:15:01;97492.91;;;-0.47;74.14
24302;BME280;12421;49.732;20.078;2023-01-28T18:25:06;97496.92;;;-0.33;74.46
24302;BME280;12421;49.732;20.078;2023-01-28T18:35:18;97500.31;;;-0.26;74.25
24302;BME280;12421;49.732;20.078;2023-01-28T18:45:26;97512.75;;;-0.25;74.43
24302;BME280;12421;49.732;20.078;2023-01-28T18:55:36;97523.61;;;-0.30;74.29
24302;BME280;12421;49.732;20.078;2023-01-28T19:05:45;97521.75;;;-0.25;74.22
24302;BME280;12421;49.732;20.078;2023-01-28T19:15:51;97525.87;;;-0.25;74.60
24302;BME280;12421;49.732;20.078;2023-01-28T19:26:05;97524.00;;;-0.33;74.69
24302;BME280;12421;49.732;20.078;2023-01-28T19:36:12;97529.31;;;-0.34;74.79
24302;BME280;12421;49.732;20.078;2023-01-28T19:46:18;97534.21;;;-0.28;75.28
24302;BME280;12421;49.732;20.078;2023-01-28T19:56:34;97541.85;;;-0.31;75.67
24302;BME280;12421;49.732;20.078;2023-01-28T20:06:48;97554.54;;;-0.49;75.63
24302;BME280;12421;49.732;20.078;2023-01-28T20:17:01;97556.92;;;-0.46;76.47
24302;BME280;12421;49.732;20.078;2023-01-28T20:27:09;97557.81;;;-0.45;76.52
24302;BME280;12421;49.732;20.078;2023-01-28T20:37:28;97559.65;;;-0.26;76.89
24302;BME280;12421;49.732;20.078;2023-01-28T20:47:35;97558.23;;;-0.27;76.53
24302;BME280;12421;49.732;20.078;2023-01-28T20:57:41;97555.91;;;-0.33;76.85
24302;BME280;12421;49.732;20.078;2023-01-28T21:07:59;97556.22;;;-0.21;77.19
24302;BME280;12421;49.732;20.078;2023-01-28T21:18:09;97564.63;;;-0.22;77.07
24302;BME280;12421;49.732;20.078;2023-01-28T21:28:20;97565.70;;;-0.26;77.13
24302;BME280;12421;49.732;20.078;2023-01-28T21:38:26;97572.48;;;-0.24;77.39
24302;BME280;12421;49.732;20.078;2023-01-28T21:48:30;97579.30;;;-0.22;77.42
24302;BME280;12421;49.732;20.078;2023-01-28T21:58:35;97582.66;;;-0.16;77.53
24302;BME280;12421;49.732;20.078;2023-01-28T22:09:02;97592.52;;;-0.16;77.33
24302;BME280;12421;49.732;20.078;2023-01-28T22:19:07;97589.11;;;-0.15;77.50
24302;BME280;12421;49.732;20.078;2023-01-28T22:29:13;97578.89;;;-0.11;77.29
24302;BME280;12421;49.732;20.078;2023-01-28T22:39:18;97576.98;;;-0.12;77.06
24302;BME280;12421;49.732;20.078;2023-01-28T22:49:22;97578.63;;;-0.01;77.00
24302;BME280;12421;49.732;20.078;2023-01-28T22:59:38;97581.89;;;-0.31;75.74
24302;BME280;12421;49.732;20.078;2023-01-28T23:09:48;97579.21;;;-0.57;75.90
24302;BME280;12421;49.732;20.078;2023-01-28T23:19:52;97586.13;;;-0.45;76.58
24302;BME280;12421;49.732;20.078;2023-01-28T23:30:15;97583.79;;;-0.43;76.46
24302;BME280;12421;49.732;20.078;2023-01-28T23:40:21;97573.22;;;-0.44;76.38
24302;BME280;12421;49.732;20.078;2023-01-28T23:50:27;97572.18;;;-0.44;76.71
